sensor_id;sensor_type;location;lat;lon;timestamp;P1;durP1;ratioP1;P2;durP2;ratioP2
36575;SDS011;45700;50.930;5.168;2022-10-31T00:03:00;30.80;;;12.95;;
36575;SDS011;45700;50.930;5.168;2022-10-31T00:07:01;39.83;;;15.88;;
36575;SDS011;45700;50.930;5.168;2022-10-31T00:11:02;40.20;;;14.23;;
36575;SDS011;45700;50.930;5.168;2022-10-31T00:15:03;32.47;;;13.52;;
36575;SDS011;45700;50.930;5.168;2022-10-31T00:19:05;35.30;;;13.70;;
36575;SDS011;45700;50.930;5.168;2022-10-31T00:23:07;36.03;;;13.20;;
36575;SDS011;45700;50.930;5.168;2022-10-31T00:27:08;33.88;;;13.80;;
36575;SDS011;45700;50.930;5.168;2022-10-31T00:31:09;42.45;;;14.32;;
36575;SDS011;45700;50.930;5.168;2022-10-31T00:35:10;31.80;;;12.45;;
36575;SDS011;45700;50.930;5.168;2022-10-31T00:39:11;39.00;;;13.50;;
36575;SDS011;45700;50.930;5.168;2022-10-31T00:43:12;32.90;;;13.25;;
36575;SDS011;45700;50.930;5.168;2022-10-31T00:47:13;38.60;;;14.00;;
36575;SDS011;45700;50.930;5.168;2022-10-31T00:51:14;29.83;;;13.50;;
36575;SDS011;45700;50.930;5.168;2022-10-31T00:55:15;33.28;;;13.55;;
36575;SDS011;45700;50.930;5.168;2022-10-31T00:59:16;35.45;;;14.63;;
36575;SDS011;45700;50.930;5.168;2022-10-31T01:03:17;41.30;;;14.02;;
36575;SDS011;45700;50.930;5.168;2022-10-31T01:07:18;31.38;;;13.32;;
36575;SDS011;45700;50.930;5.168;2022-10-31T01:11:20;30.52;;;12.73;;
36575;SDS011;45700;50.930;5.168;2022-10-31T01:15:22;45.67;;;15.20;;
36575;SDS011;45700;50.930;5.168;2022-10-31T01:19:23;36.75;;;13.05;;
36575;SDS011;45700;50.930;5.168;2022-10-31T01:23:24;34.30;;;13.13;;
36575;SDS011;45700;50.930;5.168;2022-10-31T01:27:25;33.40;;;13.80;;
36575;SDS011;45700;50.930;5.168;2022-10-31T01:31:27;33.13;;;13.98;;
36575;SDS011;45700;50.930;5.168;2022-10-31T01:35:28;34.97;;;13.02;;
36575;SDS011;45700;50.930;5.168;2022-10-31T01:39:29;31.08;;;14.13;;
36575;SDS011;45700;50.930;5.168;2022-10-31T01:43:51;36.58;;;13.80;;
36575;SDS011;45700;50.930;5.168;2022-10-31T01:47:52;33.35;;;12.85;;
36575;SDS011;45700;50.930;5.168;2022-10-31T01:52:16;40.65;;;13.52;;
36575;SDS011;45700;50.930;5.168;2022-10-31T01:56:14;39.47;;;13.13;;
36575;SDS011;45700;50.930;5.168;2022-10-31T02:00:17;37.45;;;13.18;;
36575;SDS011;45700;50.930;5.168;2022-10-31T02:04:19;27.17;;;12.40;;
36575;SDS011;45700;50.930;5.168;2022-10-31T02:08:28;31.02;;;11.90;;
36575;SDS011;45700;50.930;5.168;2022-10-31T02:12:29;33.40;;;12.33;;
36575;SDS011;45700;50.930;5.168;2022-10-31T02:16:31;28.70;;;12.07;;
36575;SDS011;45700;50.930;5.168;2022-10-31T02:20:35;36.22;;;12.30;;
36575;SDS011;45700;50.930;5.168;2022-10-31T02:24:49;29.73;;;12.00;;
36575;SDS011;45700;50.930;5.168;2022-10-31T02:33:59;27.92;;;12.35;;
36575;SDS011;45700;50.930;5.168;2022-10-31T02:42:03;31.30;;;11.80;;
36575;SDS011;45700;50.930;5.168;2022-10-31T02:46:14;25.52;;;9.65;;
36575;SDS011;45700;50.930;5.168;2022-10-31T02:50:25;31.50;;;11.52;;
36575;SDS011;45700;50.930;5.168;2022-10-31T02:54:27;31.75;;;12.07;;
36575;SDS011;45700;50.930;5.168;2022-10-31T02:58:30;25.60;;;11.32;;
36575;SDS011;45700;50.930;5.168;2022-10-31T03:07:11;28.00;;;11.00;;
36575;SDS011;45700;50.930;5.168;2022-10-31T03:11:15;34.70;;;10.75;;
36575;SDS011;45700;50.930;5.168;2022-10-31T03:15:20;23.60;;;11.32;;
36575;SDS011;45700;50.930;5.168;2022-10-31T03:19:29;25.95;;;11.18;;
36575;SDS011;45700;50.930;5.168;2022-10-31T03:23:32;25.58;;;9.63;;
36575;SDS011;45700;50.930;5.168;2022-10-31T03:27:35;24.85;;;9.90;;
36575;SDS011;45700;50.930;5.168;2022-10-31T03:31:39;22.75;;;10.15;;
36575;SDS011;45700;50.930;5.168;2022-10-31T03:35:42;24.90;;;10.23;;
36575;SDS011;45700;50.930;5.168;2022-10-31T03:39:45;24.40;;;9.55;;
36575;SDS011;45700;50.930;5.168;2022-10-31T03:44:03;22.20;;;9.88;;
36575;SDS011;45700;50.930;5.168;2022-10-31T03:48:05;18.95;;;9.02;;
36575;SDS011;45700;50.930;5.168;2022-10-31T04:00:18;21.90;;;9.55;;
36575;SDS011;45700;50.930;5.168;2022-10-31T04:04:19;29.55;;;10.70;;
36575;SDS011;45700;50.930;5.168;2022-10-31T04:08:23;22.85;;;8.63;;
36575;SDS011;45700;50.930;5.168;2022-10-31T04:12:25;21.50;;;9.23;;
36575;SDS011;45700;50.930;5.168;2022-10-31T04:16:28;37.85;;;10.70;;
36575;SDS011;45700;50.930;5.168;2022-10-31T04:20:33;27.58;;;11.63;;
36575;SDS011;45700;50.930;5.168;2022-10-31T04:24:34;27.95;;;10.35;;
36575;SDS011;45700;50.930;5.168;2022-10-31T04:28:36;23.17;;;10.45;;
36575;SDS011;45700;50.930;5.168;2022-10-31T04:32:37;22.73;;;9.98;;
36575;SDS011;45700;50.930;5.168;2022-10-31T04:36:38;30.30;;;11.43;;
36575;SDS011;45700;50.930;5.168;2022-10-31T04:40:39;18.35;;;9.52;;
36575;SDS011;45700;50.930;5.168;2022-10-31T04:44:40;28.40;;;10.57;;
36575;SDS011;45700;50.930;5.168;2022-10-31T04:48:41;22.77;;;9.13;;
36575;SDS011;45700;50.930;5.168;2022-10-31T04:52:42;24.63;;;11.05;;
36575;SDS011;45700;50.930;5.168;2022-10-31T04:56:44;22.75;;;9.25;;
36575;SDS011;45700;50.930;5.168;2022-10-31T05:00:45;27.38;;;10.20;;
36575;SDS011;45700;50.930;5.168;2022-10-31T05:04:46;20.45;;;10.05;;
36575;SDS011;45700;50.930;5.168;2022-10-31T05:08:47;19.75;;;10.07;;
36575;SDS011;45700;50.930;5.168;2022-10-31T05:12:48;25.35;;;10.55;;
36575;SDS011;45700;50.930;5.168;2022-10-31T05:16:49;27.45;;;11.32;;
36575;SDS011;45700;50.930;5.168;2022-10-31T05:20:50;26.85;;;10.80;;
36575;SDS011;45700;50.930;5.168;2022-10-31T05:24:51;25.95;;;11.30;;
36575;SDS011;45700;50.930;5.168;2022-10-31T05:28:52;25.55;;;10.38;;
36575;SDS011;45700;50.930;5.168;2022-10-31T05:32:53;24.90;;;10.98;;
36575;SDS011;45700;50.930;5.168;2022-10-31T05:36:54;28.52;;;10.55;;
36575;SDS011;45700;50.930;5.168;2022-10-31T05:40:55;23.17;;;9.65;;
36575;SDS011;45700;50.930;5.168;2022-10-31T05:45:06;27.38;;;9.57;;
36575;SDS011;45700;50.930;5.168;2022-10-31T05:49:08;25.88;;;9.48;;
36575;SDS011;45700;50.930;5.168;2022-10-31T05:53:09;26.58;;;10.95;;
36575;SDS011;45700;50.930;5.168;2022-10-31T05:57:10;23.20;;;10.68;;
36575;SDS011;45700;50.930;5.168;2022-10-31T06:01:11;26.15;;;9.82;;
36575;SDS011;45700;50.930;5.168;2022-10-31T06:05:12;23.83;;;10.13;;
36575;SDS011;45700;50.930;5.168;2022-10-31T06:09:13;26.90;;;11.13;;
36575;SDS011;45700;50.930;5.168;2022-10-31T06:13:14;27.65;;;11.43;;
36575;SDS011;45700;50.930;5.168;2022-10-31T06:17:15;25.00;;;10.77;;
36575;SDS011;45700;50.930;5.168;2022-10-31T06:21:16;24.55;;;10.45;;
36575;SDS011;45700;50.930;5.168;2022-10-31T06:25:17;20.58;;;9.45;;
36575;SDS011;45700;50.930;5.168;2022-10-31T06:29:18;25.05;;;10.30;;
36575;SDS011;45700;50.930;5.168;2022-10-31T06:33:19;25.83;;;10.23;;
36575;SDS011;45700;50.930;5.168;2022-10-31T06:37:20;32.35;;;11.23;;
36575;SDS011;45700;50.930;5.168;2022-10-31T06:41:21;28.40;;;11.20;;
36575;SDS011;45700;50.930;5.168;2022-10-31T06:45:22;24.00;;;8.52;;
36575;SDS011;45700;50.930;5.168;2022-10-31T06:49:23;26.20;;;7.85;;
36575;SDS011;45700;50.930;5.168;2022-10-31T06:53:25;23.20;;;8.10;;
36575;SDS011;45700;50.930;5.168;2022-10-31T06:57:26;22.23;;;9.25;;
36575;SDS011;45700;50.930;5.168;2022-10-31T07:01:27;21.33;;;8.30;;
36575;SDS011;45700;50.930;5.168;2022-10-31T07:05:28;16.63;;;7.72;;
36575;SDS011;45700;50.930;5.168;2022-10-31T07:09:29;21.85;;;8.40;;
36575;SDS011;45700;50.930;5.168;2022-10-31T07:13:30;15.20;;;6.30;;
36575;SDS011;45700;50.930;5.168;2022-10-31T07:17:32;20.33;;;8.57;;
36575;SDS011;45700;50.930;5.168;2022-10-31T07:21:33;22.70;;;8.95;;
36575;SDS011;45700;50.930;5.168;2022-10-31T07:25:34;22.15;;;8.93;;
36575;SDS011;45700;50.930;5.168;2022-10-31T07:29:35;20.63;;;10.18;;
36575;SDS011;45700;50.930;5.168;2022-10-31T07:33:36;21.48;;;8.68;;
36575;SDS011;45700;50.930;5.168;2022-10-31T07:37:37;31.85;;;9.80;;
36575;SDS011;45700;50.930;5.168;2022-10-31T07:41:38;19.90;;;9.95;;
36575;SDS011;45700;50.930;5.168;2022-10-31T07:45:39;23.60;;;10.38;;
36575;SDS011;45700;50.930;5.168;2022-10-31T07:49:40;21.55;;;9.40;;
36575;SDS011;45700;50.930;5.168;2022-10-31T07:53:41;22.38;;;8.77;;
36575;SDS011;45700;50.930;5.168;2022-10-31T07:57:42;29.00;;;10.13;;
36575;SDS011;45700;50.930;5.168;2022-10-31T08:01:43;28.45;;;10.43;;
36575;SDS011;45700;50.930;5.168;2022-10-31T08:05:44;28.17;;;11.23;;
36575;SDS011;45700;50.930;5.168;2022-10-31T08:09:46;25.63;;;10.70;;
36575;SDS011;45700;50.930;5.168;2022-10-31T08:13:47;23.00;;;10.50;;
36575;SDS011;45700;50.930;5.168;2022-10-31T08:17:48;25.60;;;10.68;;
36575;SDS011;45700;50.930;5.168;2022-10-31T08:21:50;27.33;;;10.85;;
36575;SDS011;45700;50.930;5.168;2022-10-31T08:25:51;22.90;;;9.80;;
36575;SDS011;45700;50.930;5.168;2022-10-31T08:29:52;24.05;;;9.85;;
36575;SDS011;45700;50.930;5.168;2022-10-31T08:33:53;26.13;;;9.98;;
36575;SDS011;45700;50.930;5.168;2022-10-31T08:37:55;26.98;;;9.73;;
36575;SDS011;45700;50.930;5.168;2022-10-31T08:41:56;34.63;;;9.32;;
36575;SDS011;45700;50.930;5.168;2022-10-31T08:45:57;24.98;;;9.95;;
36575;SDS011;45700;50.930;5.168;2022-10-31T08:49:58;22.67;;;8.80;;
36575;SDS011;45700;50.930;5.168;2022-10-31T08:53:59;19.05;;;8.55;;
36575;SDS011;45700;50.930;5.168;2022-10-31T08:58:00;25.10;;;8.32;;
36575;SDS011;45700;50.930;5.168;2022-10-31T09:02:01;25.17;;;7.75;;
36575;SDS011;45700;50.930;5.168;2022-10-31T09:06:02;21.90;;;8.18;;
36575;SDS011;45700;50.930;5.168;2022-10-31T09:10:05;23.75;;;8.68;;
36575;SDS011;45700;50.930;5.168;2022-10-31T09:14:06;23.95;;;9.30;;
36575;SDS011;45700;50.930;5.168;2022-10-31T09:18:08;17.98;;;7.72;;
36575;SDS011;45700;50.930;5.168;2022-10-31T09:22:09;18.88;;;8.18;;
36575;SDS011;45700;50.930;5.168;2022-10-31T09:26:10;19.65;;;8.45;;
36575;SDS011;45700;50.930;5.168;2022-10-31T09:30:11;21.05;;;8.57;;
36575;SDS011;45700;50.930;5.168;2022-10-31T09:34:12;32.83;;;9.10;;
36575;SDS011;45700;50.930;5.168;2022-10-31T09:38:17;34.25;;;10.95;;
36575;SDS011;45700;50.930;5.168;2022-10-31T09:50:41;30.27;;;8.85;;
36575;SDS011;45700;50.930;5.168;2022-10-31T09:54:49;24.98;;;9.23;;
36575;SDS011;45700;50.930;5.168;2022-10-31T09:58:53;23.63;;;9.40;;
36575;SDS011;45700;50.930;5.168;2022-10-31T10:03:12;24.92;;;9.18;;
36575;SDS011;45700;50.930;5.168;2022-10-31T10:07:21;27.17;;;10.13;;
36575;SDS011;45700;50.930;5.168;2022-10-31T10:11:32;31.08;;;11.40;;
36575;SDS011;45700;50.930;5.168;2022-10-31T10:19:53;26.35;;;10.07;;
36575;SDS011;45700;50.930;5.168;2022-10-31T10:32:23;32.38;;;10.98;;
36575;SDS011;45700;50.930;5.168;2022-10-31T10:36:32;25.88;;;9.68;;
36575;SDS011;45700;50.930;5.168;2022-10-31T10:40:34;25.30;;;9.25;;
36575;SDS011;45700;50.930;5.168;2022-10-31T10:44:39;25.58;;;8.90;;
36575;SDS011;45700;50.930;5.168;2022-10-31T10:49:18;26.20;;;10.38;;
36575;SDS011;45700;50.930;5.168;2022-10-31T11:01:50;24.25;;;9.80;;
36575;SDS011;45700;50.930;5.168;2022-10-31T11:05:53;34.70;;;10.20;;
36575;SDS011;45700;50.930;5.168;2022-10-31T11:10:02;31.50;;;12.38;;
36575;SDS011;45700;50.930;5.168;2022-10-31T11:14:05;25.30;;;9.57;;
36575;SDS011;45700;50.930;5.168;2022-10-31T11:18:12;27.95;;;10.40;;
36575;SDS011;45700;50.930;5.168;2022-10-31T11:22:19;25.88;;;9.90;;
36575;SDS011;45700;50.930;5.168;2022-10-31T11:26:22;22.95;;;9.27;;
36575;SDS011;45700;50.930;5.168;2022-10-31T11:30:23;21.92;;;7.82;;
36575;SDS011;45700;50.930;5.168;2022-10-31T11:34:37;25.08;;;8.73;;
36575;SDS011;45700;50.930;5.168;2022-10-31T11:38:42;20.83;;;8.27;;
36575;SDS011;45700;50.930;5.168;2022-10-31T11:42:44;31.20;;;8.73;;
36575;SDS011;45700;50.930;5.168;2022-10-31T11:46:47;17.88;;;7.65;;
36575;SDS011;45700;50.930;5.168;2022-10-31T11:50:49;20.08;;;6.60;;
36575;SDS011;45700;50.930;5.168;2022-10-31T11:54:55;18.33;;;6.32;;
36575;SDS011;45700;50.930;5.168;2022-10-31T11:59:02;22.98;;;7.10;;
36575;SDS011;45700;50.930;5.168;2022-10-31T12:07:13;33.60;;;8.43;;
36575;SDS011;45700;50.930;5.168;2022-10-31T12:11:26;20.63;;;6.28;;
36575;SDS011;45700;50.930;5.168;2022-10-31T12:15:32;18.00;;;6.57;;
36575;SDS011;45700;50.930;5.168;2022-10-31T12:36:08;17.25;;;6.88;;
36575;SDS011;45700;50.930;5.168;2022-10-31T12:48:50;14.70;;;5.82;;
36575;SDS011;45700;50.930;5.168;2022-10-31T12:53:00;17.73;;;5.93;;
36575;SDS011;45700;50.930;5.168;2022-10-31T13:01:17;14.60;;;5.30;;
36575;SDS011;45700;50.930;5.168;2022-10-31T13:09:25;13.38;;;5.45;;
36575;SDS011;45700;50.930;5.168;2022-10-31T13:13:36;13.32;;;5.40;;
36575;SDS011;45700;50.930;5.168;2022-10-31T13:21:41;10.70;;;5.22;;
36575;SDS011;45700;50.930;5.168;2022-10-31T13:25:49;19.10;;;5.70;;
36575;SDS011;45700;50.930;5.168;2022-10-31T13:30:05;13.60;;;4.97;;
36575;SDS011;45700;50.930;5.168;2022-10-31T13:34:18;17.70;;;5.82;;
36575;SDS011;45700;50.930;5.168;2022-10-31T13:38:24;19.38;;;5.45;;
36575;SDS011;45700;50.930;5.168;2022-10-31T13:47:24;27.13;;;7.22;;
36575;SDS011;45700;50.930;5.168;2022-10-31T13:51:26;15.18;;;5.22;;
36575;SDS011;45700;50.930;5.168;2022-10-31T13:55:47;14.38;;;5.10;;
36575;SDS011;45700;50.930;5.168;2022-10-31T13:59:52;10.73;;;4.75;;
36575;SDS011;45700;50.930;5.168;2022-10-31T14:04:05;15.55;;;5.30;;
36575;SDS011;45700;50.930;5.168;2022-10-31T14:08:15;25.05;;;5.35;;
36575;SDS011;45700;50.930;5.168;2022-10-31T14:12:27;14.30;;;5.57;;
36575;SDS011;45700;50.930;5.168;2022-10-31T14:16:30;17.08;;;5.28;;
36575;SDS011;45700;50.930;5.168;2022-10-31T14:20:41;16.00;;;6.07;;
36575;SDS011;45700;50.930;5.168;2022-10-31T14:24:42;17.10;;;6.32;;
36575;SDS011;45700;50.930;5.168;2022-10-31T14:28:43;24.77;;;5.65;;
36575;SDS011;45700;50.930;5.168;2022-10-31T14:32:44;16.35;;;6.15;;
36575;SDS011;45700;50.930;5.168;2022-10-31T14:45:36;8.85;;;5.03;;
36575;SDS011;45700;50.930;5.168;2022-10-31T14:54:06;12.70;;;5.60;;
36575;SDS011;45700;50.930;5.168;2022-10-31T14:58:08;18.02;;;5.35;;
36575;SDS011;45700;50.930;5.168;2022-10-31T15:02:11;15.55;;;5.63;;
36575;SDS011;45700;50.930;5.168;2022-10-31T15:06:15;15.48;;;5.93;;
36575;SDS011;45700;50.930;5.168;2022-10-31T15:10:36;15.18;;;5.50;;
36575;SDS011;45700;50.930;5.168;2022-10-31T15:14:37;15.50;;;5.68;;
36575;SDS011;45700;50.930;5.168;2022-10-31T15:18:44;18.92;;;5.43;;
36575;SDS011;45700;50.930;5.168;2022-10-31T15:22:46;15.27;;;7.68;;
36575;SDS011;45700;50.930;5.168;2022-10-31T15:26:48;18.73;;;6.35;;
36575;SDS011;45700;50.930;5.168;2022-10-31T15:30:51;17.13;;;6.20;;
36575;SDS011;45700;50.930;5.168;2022-10-31T15:34:53;19.65;;;5.55;;
36575;SDS011;45700;50.930;5.168;2022-10-31T15:38:55;19.35;;;6.45;;
36575;SDS011;45700;50.930;5.168;2022-10-31T15:43:03;17.23;;;5.97;;
36575;SDS011;45700;50.930;5.168;2022-10-31T15:47:16;19.25;;;6.53;;
36575;SDS011;45700;50.930;5.168;2022-10-31T15:51:24;16.52;;;6.55;;
36575;SDS011;45700;50.930;5.168;2022-10-31T15:55:26;21.33;;;6.63;;
36575;SDS011;45700;50.930;5.168;2022-10-31T15:59:29;16.08;;;5.85;;
36575;SDS011;45700;50.930;5.168;2022-10-31T16:03:31;17.92;;;5.63;;
36575;SDS011;45700;50.930;5.168;2022-10-31T16:07:32;17.75;;;6.13;;
36575;SDS011;45700;50.930;5.168;2022-10-31T16:15:34;11.05;;;5.32;;
36575;SDS011;45700;50.930;5.168;2022-10-31T16:19:36;9.52;;;4.32;;
36575;SDS011;45700;50.930;5.168;2022-10-31T16:23:44;19.48;;;5.18;;
36575;SDS011;45700;50.930;5.168;2022-10-31T16:27:47;10.68;;;3.40;;
36575;SDS011;45700;50.930;5.168;2022-10-31T16:31:49;8.63;;;3.47;;
36575;SDS011;45700;50.930;5.168;2022-10-31T16:35:50;12.80;;;3.80;;
36575;SDS011;45700;50.930;5.168;2022-10-31T16:39:51;7.00;;;2.83;;
36575;SDS011;45700;50.930;5.168;2022-10-31T16:43:52;9.80;;;4.10;;
36575;SDS011;45700;50.930;5.168;2022-10-31T16:47:53;6.82;;;3.05;;
36575;SDS011;45700;50.930;5.168;2022-10-31T16:51:54;5.78;;;2.53;;
36575;SDS011;45700;50.930;5.168;2022-10-31T16:55:56;11.10;;;3.45;;
36575;SDS011;45700;50.930;5.168;2022-10-31T16:59:57;9.85;;;2.42;;
36575;SDS011;45700;50.930;5.168;2022-10-31T17:03:58;8.75;;;3.13;;
36575;SDS011;45700;50.930;5.168;2022-10-31T17:07:59;8.77;;;3.28;;
36575;SDS011;45700;50.930;5.168;2022-10-31T17:12:00;6.68;;;2.55;;
36575;SDS011;45700;50.930;5.168;2022-10-31T17:16:02;6.10;;;2.47;;
36575;SDS011;45700;50.930;5.168;2022-10-31T17:20:08;6.57;;;2.65;;
36575;SDS011;45700;50.930;5.168;2022-10-31T17:24:12;8.57;;;1.97;;
36575;SDS011;45700;50.930;5.168;2022-10-31T17:28:13;6.85;;;2.45;;
36575;SDS011;45700;50.930;5.168;2022-10-31T17:32:14;11.73;;;2.38;;
36575;SDS011;45700;50.930;5.168;2022-10-31T17:36:16;8.20;;;2.92;;
36575;SDS011;45700;50.930;5.168;2022-10-31T17:40:18;6.90;;;2.10;;
36575;SDS011;45700;50.930;5.168;2022-10-31T17:44:19;5.15;;;2.85;;
36575;SDS011;45700;50.930;5.168;2022-10-31T17:48:20;7.95;;;1.77;;
36575;SDS011;45700;50.930;5.168;2022-10-31T17:52:21;11.15;;;2.47;;
36575;SDS011;45700;50.930;5.168;2022-10-31T17:56:22;13.25;;;2.97;;
36575;SDS011;45700;50.930;5.168;2022-10-31T18:00:23;9.43;;;2.85;;
36575;SDS011;45700;50.930;5.168;2022-10-31T18:04:24;9.63;;;2.10;;
36575;SDS011;45700;50.930;5.168;2022-10-31T18:08:26;7.60;;;2.78;;
36575;SDS011;45700;50.930;5.168;2022-10-31T18:12:27;7.28;;;3.45;;
36575;SDS011;45700;50.930;5.168;2022-10-31T18:16:31;8.27;;;2.83;;
36575;SDS011;45700;50.930;5.168;2022-10-31T18:20:32;8.45;;;2.85;;
36575;SDS011;45700;50.930;5.168;2022-10-31T18:24:33;7.57;;;3.22;;
36575;SDS011;45700;50.930;5.168;2022-10-31T18:28:35;8.10;;;3.28;;
36575;SDS011;45700;50.930;5.168;2022-10-31T18:32:36;10.75;;;3.05;;
36575;SDS011;45700;50.930;5.168;2022-10-31T18:36:37;9.50;;;3.15;;
36575;SDS011;45700;50.930;5.168;2022-10-31T18:40:38;7.45;;;2.50;;
36575;SDS011;45700;50.930;5.168;2022-10-31T18:44:39;14.10;;;3.20;;
36575;SDS011;45700;50.930;5.168;2022-10-31T18:48:40;9.18;;;2.90;;
36575;SDS011;45700;50.930;5.168;2022-10-31T18:52:42;8.70;;;3.75;;
36575;SDS011;45700;50.930;5.168;2022-10-31T18:56:43;10.85;;;3.47;;
36575;SDS011;45700;50.930;5.168;2022-10-31T19:00:44;9.27;;;3.13;;
36575;SDS011;45700;50.930;5.168;2022-10-31T19:04:45;11.73;;;3.28;;
36575;SDS011;45700;50.930;5.168;2022-10-31T19:08:46;8.43;;;3.03;;
36575;SDS011;45700;50.930;5.168;2022-10-31T19:12:47;15.02;;;3.90;;
36575;SDS011;45700;50.930;5.168;2022-10-31T19:16:48;8.90;;;3.30;;
36575;SDS011;45700;50.930;5.168;2022-10-31T19:20:49;10.82;;;3.92;;
36575;SDS011;45700;50.930;5.168;2022-10-31T19:24:50;12.45;;;3.45;;
36575;SDS011;45700;50.930;5.168;2022-10-31T19:28:51;6.95;;;3.22;;
36575;SDS011;45700;50.930;5.168;2022-10-31T19:32:52;13.45;;;3.28;;
36575;SDS011;45700;50.930;5.168;2022-10-31T19:36:54;7.00;;;3.13;;
36575;SDS011;45700;50.930;5.168;2022-10-31T19:40:56;12.07;;;3.28;;
36575;SDS011;45700;50.930;5.168;2022-10-31T19:44:58;6.60;;;2.95;;
36575;SDS011;45700;50.930;5.168;2022-10-31T19:48:59;11.00;;;3.72;;
36575;SDS011;45700;50.930;5.168;2022-10-31T19:53:01;9.23;;;3.90;;
36575;SDS011;45700;50.930;5.168;2022-10-31T19:57:02;14.13;;;3.45;;
36575;SDS011;45700;50.930;5.168;2022-10-31T20:01:07;7.60;;;2.60;;
36575;SDS011;45700;50.930;5.168;2022-10-31T20:05:08;9.20;;;2.88;;
36575;SDS011;45700;50.930;5.168;2022-10-31T20:09:10;7.93;;;3.13;;
36575;SDS011;45700;50.930;5.168;2022-10-31T20:13:14;10.15;;;3.05;;
36575;SDS011;45700;50.930;5.168;2022-10-31T20:17:15;7.25;;;3.15;;
36575;SDS011;45700;50.930;5.168;2022-10-31T20:21:18;7.25;;;2.63;;
36575;SDS011;45700;50.930;5.168;2022-10-31T20:25:19;10.23;;;3.58;;
36575;SDS011;45700;50.930;5.168;2022-10-31T20:29:20;6.40;;;2.53;;
36575;SDS011;45700;50.930;5.168;2022-10-31T20:33:21;7.95;;;2.20;;
36575;SDS011;45700;50.930;5.168;2022-10-31T20:37:22;8.60;;;2.67;;
36575;SDS011;45700;50.930;5.168;2022-10-31T20:41:23;10.75;;;3.28;;
36575;SDS011;45700;50.930;5.168;2022-10-31T20:45:25;11.35;;;2.97;;
36575;SDS011;45700;50.930;5.168;2022-10-31T20:49:25;8.95;;;2.78;;
36575;SDS011;45700;50.930;5.168;2022-10-31T20:53:27;7.18;;;2.78;;
36575;SDS011;45700;50.930;5.168;2022-10-31T20:57:28;7.28;;;2.88;;
36575;SDS011;45700;50.930;5.168;2022-10-31T21:01:29;12.25;;;2.78;;
36575;SDS011;45700;50.930;5.168;2022-10-31T21:05:32;12.20;;;3.20;;
36575;SDS011;45700;50.930;5.168;2022-10-31T21:09:32;10.80;;;2.72;;
36575;SDS011;45700;50.930;5.168;2022-10-31T21:13:34;10.30;;;3.20;;
36575;SDS011;45700;50.930;5.168;2022-10-31T21:17:36;15.52;;;3.70;;
36575;SDS011;45700;50.930;5.168;2022-10-31T21:21:37;12.02;;;2.85;;
36575;SDS011;45700;50.930;5.168;2022-10-31T21:25:39;13.00;;;2.50;;
36575;SDS011;45700;50.930;5.168;2022-10-31T21:29:40;10.65;;;3.15;;
36575;SDS011;45700;50.930;5.168;2022-10-31T21:33:41;9.40;;;3.13;;
36575;SDS011;45700;50.930;5.168;2022-10-31T21:37:43;10.70;;;3.47;;
36575;SDS011;45700;50.930;5.168;2022-10-31T21:41:44;7.93;;;3.55;;
36575;SDS011;45700;50.930;5.168;2022-10-31T21:45:45;4.20;;;2.45;;
36575;SDS011;45700;50.930;5.168;2022-10-31T21:49:46;10.52;;;3.17;;
36575;SDS011;45700;50.930;5.168;2022-10-31T21:53:47;11.80;;;4.20;;
36575;SDS011;45700;50.930;5.168;2022-10-31T21:58:07;6.68;;;3.03;;
36575;SDS011;45700;50.930;5.168;2022-10-31T22:02:08;10.95;;;3.55;;
36575;SDS011;45700;50.930;5.168;2022-10-31T22:06:11;8.90;;;3.17;;
36575;SDS011;45700;50.930;5.168;2022-10-31T22:10:12;10.15;;;3.15;;
36575;SDS011;45700;50.930;5.168;2022-10-31T22:14:13;9.23;;;3.20;;
36575;SDS011;45700;50.930;5.168;2022-10-31T22:18:14;7.85;;;2.70;;
36575;SDS011;45700;50.930;5.168;2022-10-31T22:22:15;14.95;;;3.45;;
36575;SDS011;45700;50.930;5.168;2022-10-31T22:26:16;13.48;;;3.00;;
36575;SDS011;45700;50.930;5.168;2022-10-31T22:30:18;5.93;;;3.00;;
36575;SDS011;45700;50.930;5.168;2022-10-31T22:34:19;15.27;;;3.08;;
36575;SDS011;45700;50.930;5.168;2022-10-31T22:38:20;9.65;;;2.83;;
36575;SDS011;45700;50.930;5.168;2022-10-31T22:42:21;11.68;;;3.17;;
36575;SDS011;45700;50.930;5.168;2022-10-31T22:46:23;7.47;;;3.60;;
36575;SDS011;45700;50.930;5.168;2022-10-31T22:50:24;4.88;;;2.33;;
36575;SDS011;45700;50.930;5.168;2022-10-31T22:54:25;12.20;;;3.35;;
36575;SDS011;45700;50.930;5.168;2022-10-31T22:58:29;6.35;;;2.90;;
36575;SDS011;45700;50.930;5.168;2022-10-31T23:02:31;11.20;;;3.17;;
36575;SDS011;45700;50.930;5.168;2022-10-31T23:06:32;8.68;;;2.90;;
36575;SDS011;45700;50.930;5.168;2022-10-31T23:10:33;7.75;;;2.53;;
36575;SDS011;45700;50.930;5.168;2022-10-31T23:14:40;9.13;;;2.47;;
36575;SDS011;45700;50.930;5.168;2022-10-31T23:18:41;7.47;;;2.90;;
36575;SDS011;45700;50.930;5.168;2022-10-31T23:22:42;7.00;;;2.25;;
36575;SDS011;45700;50.930;5.168;2022-10-31T23:26:43;6.65;;;2.80;;
36575;SDS011;45700;50.930;5.168;2022-10-31T23:31:02;6.35;;;2.70;;
36575;SDS011;45700;50.930;5.168;2022-10-31T23:35:05;6.68;;;2.60;;
36575;SDS011;45700;50.930;5.168;2022-10-31T23:39:06;7.95;;;2.28;;
36575;SDS011;45700;50.930;5.168;2022-10-31T23:43:07;6.18;;;3.15;;
36575;SDS011;45700;50.930;5.168;2022-10-31T23:47:08;8.50;;;3.03;;
36575;SDS011;45700;50.930;5.168;2022-10-31T23:51:09;7.50;;;2.75;;
36575;SDS011;45700;50.930;5.168;2022-10-31T23:55:10;9.32;;;2.80;;
36575;SDS011;45700;50.930;5.168;2022-10-31T23:59:11;6.32;;;2.47;;
